createdAt,value
2022-10-24T00:00:54.651Z,22.48
2022-10-24T00:03:20.907Z,22.48
2022-10-24T00:05:47.804Z,22.49
2022-10-24T00:08:14.997Z,22.48
2022-10-24T00:10:43.721Z,22.48
2022-10-24T00:13:10.548Z,22.49
2022-10-24T00:15:37.145Z,22.48
2022-10-24T00:18:03.817Z,22.49
2022-10-24T00:20:30.183Z,22.48
2022-10-24T00:22:56.699Z,22.48
2022-10-24T00:25:22.977Z,22.49
2022-10-24T00:27:49.263Z,22.50
2022-10-24T00:30:15.756Z,22.49
2022-10-24T00:32:42.218Z,22.50
2022-10-24T00:35:10.259Z,22.51
2022-10-24T00:37:36.693Z,22.51
2022-10-24T00:40:05.440Z,22.51
2022-10-24T00:42:31.872Z,22.52
2022-10-24T00:44:58.142Z,22.52
2022-10-24T00:47:26.109Z,22.53
2022-10-24T00:49:54.051Z,22.54
2022-10-24T00:52:25.730Z,22.54
2022-10-24T00:54:53.180Z,22.53
2022-10-24T00:57:22.592Z,22.53
2022-10-24T00:59:51.586Z,22.52
2022-10-24T01:02:17.858Z,22.53
2022-10-24T01:04:46.340Z,22.53
2022-10-24T01:07:19.365Z,22.53
2022-10-24T01:10:04.362Z,22.53
2022-10-24T01:12:46.763Z,22.51
2022-10-24T01:15:22.733Z,22.50
2022-10-24T01:17:48.960Z,22.49
2022-10-24T01:20:34.243Z,22.47
2022-10-24T01:23:26.346Z,22.46
2022-10-24T01:26:07.634Z,22.43
2022-10-24T01:28:45.932Z,22.42
2022-10-24T01:31:16.169Z,22.41
2022-10-24T01:33:49.303Z,22.41
2022-10-24T01:36:20.092Z,22.41
2022-10-24T01:38:54.230Z,22.40
2022-10-24T01:41:21.445Z,22.40
2022-10-24T01:44:02.636Z,22.40
2022-10-24T01:46:31.876Z,22.41
2022-10-24T01:49:14.528Z,22.39
2022-10-24T01:51:41.943Z,22.39
2022-10-24T01:54:10.831Z,22.37
2022-10-24T01:56:37.145Z,22.37
2022-10-24T01:59:07.509Z,22.36
2022-10-24T02:01:35.311Z,22.37
2022-10-24T02:04:03.628Z,22.37
2022-10-24T02:06:32.202Z,22.37
2022-10-24T02:11:32.718Z,22.41
2022-10-24T02:14:05.006Z,22.41
2022-10-24T02:16:31.737Z,22.44
2022-10-24T02:18:59.061Z,22.46
2022-10-24T02:21:38.048Z,22.46
2022-10-24T02:24:15.323Z,22.47
2022-10-24T02:26:47.714Z,22.48
2022-10-24T02:29:16.119Z,22.50
2022-10-24T02:31:47.313Z,22.52
2022-10-24T02:34:14.975Z,22.54
2022-10-24T02:36:44.520Z,22.56
2022-10-24T02:39:11.650Z,22.57
2022-10-24T02:41:40.500Z,22.60
2022-10-24T02:44:07.670Z,22.61
2022-10-24T02:46:34.626Z,22.64
2022-10-24T02:49:02.316Z,22.66
2022-10-24T02:51:33.542Z,22.69
2022-10-24T02:54:00.445Z,22.70
2022-10-24T02:56:26.893Z,22.71
2022-10-24T02:58:53.159Z,22.72
2022-10-24T03:01:19.536Z,22.72
2022-10-24T03:03:46.080Z,22.72
2022-10-24T03:06:12.632Z,22.72
2022-10-24T03:08:39.499Z,22.72
2022-10-24T03:11:05.818Z,22.73
2022-10-24T03:13:32.775Z,22.72
2022-10-24T03:15:59.386Z,22.74
2022-10-24T03:18:25.851Z,22.74
2022-10-24T03:20:52.302Z,22.75
2022-10-24T03:23:19.964Z,22.74
2022-10-24T03:25:46.426Z,22.75
2022-10-24T03:28:12.706Z,22.76
2022-10-24T03:30:39.118Z,22.74
2022-10-24T03:33:05.409Z,22.76
2022-10-24T03:35:31.774Z,22.75
2022-10-24T03:37:58.254Z,22.75
2022-10-24T03:40:24.540Z,22.74
2022-10-24T03:42:50.973Z,22.75
2022-10-24T03:45:17.376Z,22.74
2022-10-24T03:47:43.634Z,22.74
2022-10-24T03:50:09.899Z,22.74
2022-10-24T03:52:37.155Z,22.74
2022-10-24T03:55:03.511Z,22.74
2022-10-24T03:57:29.889Z,22.74
2022-10-24T03:59:56.245Z,22.74
2022-10-24T04:02:22.661Z,22.74
2022-10-24T04:04:48.979Z,22.73
2022-10-24T04:07:15.211Z,22.73
2022-10-24T04:09:42.076Z,22.72
2022-10-24T04:12:08.314Z,22.73
2022-10-24T04:14:34.832Z,22.71
2022-10-24T04:17:01.482Z,22.71
2022-10-24T04:19:27.721Z,22.72
2022-10-24T04:21:54.146Z,22.71
2022-10-24T04:24:20.388Z,22.71
2022-10-24T04:26:47.743Z,22.69
2022-10-24T04:29:14.173Z,22.69
2022-10-24T04:31:40.428Z,22.67
2022-10-24T04:34:06.805Z,22.68
2022-10-24T04:36:33.879Z,22.66
2022-10-24T04:41:31.571Z,22.67
2022-10-24T04:43:57.993Z,22.66
2022-10-24T04:46:24.306Z,22.66
2022-10-24T04:48:50.587Z,22.64
2022-10-24T04:51:19.989Z,22.64
2022-10-24T04:53:48.756Z,22.64
2022-10-24T04:56:15.181Z,22.62
2022-10-24T04:58:41.581Z,22.65
2022-10-24T05:01:08.138Z,22.62
2022-10-24T05:03:36.670Z,22.63
2022-10-24T05:06:03.015Z,22.62
2022-10-24T05:08:29.294Z,22.62
2022-10-24T05:10:55.564Z,22.58
2022-10-24T05:13:21.992Z,22.60
2022-10-24T05:15:48.293Z,22.58
2022-10-24T05:18:14.647Z,22.57
2022-10-24T05:23:12.508Z,22.59
2022-10-24T05:25:39.191Z,22.58
2022-10-24T05:28:06.003Z,22.58
2022-10-24T05:30:32.380Z,22.58
2022-10-24T05:32:58.843Z,22.58
2022-10-24T05:35:25.054Z,22.58
2022-10-24T05:37:51.420Z,22.56
2022-10-24T05:40:17.797Z,22.55
2022-10-24T05:42:44.453Z,22.56
2022-10-24T05:45:11.011Z,22.53
2022-10-24T05:47:37.445Z,22.53
2022-10-24T05:50:04.306Z,22.52
2022-10-24T05:52:30.554Z,22.51
2022-10-24T05:55:06.760Z,22.50
2022-10-24T05:57:34.332Z,22.49
2022-10-24T06:00:00.747Z,22.49
2022-10-24T06:02:27.139Z,22.48
2022-10-24T06:04:55.352Z,22.46
2022-10-24T06:07:21.703Z,22.45
2022-10-24T06:09:47.978Z,22.44
2022-10-24T06:12:14.313Z,22.42
2022-10-24T06:14:40.881Z,22.41
2022-10-24T06:17:09.129Z,22.42
2022-10-24T06:19:36.710Z,22.43
2022-10-24T06:22:03.373Z,22.43
2022-10-24T06:24:29.801Z,22.44
2022-10-24T06:26:56.090Z,22.45
2022-10-24T06:29:22.313Z,22.46
2022-10-24T06:31:49.540Z,22.47
2022-10-24T06:34:15.797Z,22.47
2022-10-24T06:36:42.282Z,22.49
2022-10-24T06:39:08.682Z,22.48
2022-10-24T06:41:34.914Z,22.52
2022-10-24T06:44:02.737Z,22.51
2022-10-24T06:46:29.120Z,22.53
2022-10-24T06:48:56.060Z,22.54
2022-10-24T06:51:22.974Z,22.57
2022-10-24T06:53:49.586Z,22.58
2022-10-24T06:56:17.879Z,22.60
2022-10-24T06:58:45.737Z,22.62
2022-10-24T07:01:15.121Z,22.64
2022-10-24T07:03:42.074Z,22.66
2022-10-24T07:06:17.182Z,22.68
2022-10-24T07:08:44.023Z,22.70
2022-10-24T07:11:10.658Z,22.72
2022-10-24T07:13:37.015Z,22.76
2022-10-24T07:16:03.684Z,22.77
2022-10-24T07:18:29.925Z,22.81
2022-10-24T07:21:00.639Z,22.83
2022-10-24T07:23:27.333Z,22.86
2022-10-24T07:25:53.964Z,22.91
2022-10-24T07:28:20.346Z,22.92
2022-10-24T07:30:46.645Z,22.98
2022-10-24T07:33:13.133Z,23.02
2022-10-24T07:35:43.298Z,23.08
2022-10-24T07:38:09.956Z,23.14
2022-10-24T07:40:36.205Z,23.20
2022-10-24T07:43:02.625Z,23.25
2022-10-24T07:45:29.864Z,23.32
2022-10-24T07:47:56.138Z,23.36
2022-10-24T07:50:22.415Z,23.42
2022-10-24T07:52:48.813Z,23.47
2022-10-24T07:55:15.172Z,23.52
2022-10-24T07:57:41.726Z,23.58
2022-10-24T08:00:08.328Z,23.66
2022-10-24T08:02:35.687Z,23.72
2022-10-24T08:05:03.020Z,23.79
2022-10-24T08:07:30.144Z,23.87
2022-10-24T08:09:56.441Z,23.97
2022-10-24T08:12:22.866Z,24.04
2022-10-24T08:14:49.569Z,24.13
2022-10-24T08:17:19.962Z,24.21
2022-10-24T08:19:47.651Z,24.28
2022-10-24T08:22:14.015Z,24.36
2022-10-24T08:24:42.196Z,24.40
2022-10-24T08:27:08.628Z,24.42
2022-10-24T08:29:35.015Z,24.45
2022-10-24T08:32:01.610Z,24.44
2022-10-24T08:34:28.045Z,24.44
2022-10-24T08:36:54.586Z,24.44
2022-10-24T08:39:21.314Z,24.45
2022-10-24T08:41:50.414Z,24.48
2022-10-24T08:44:21.263Z,24.52
2022-10-24T08:46:56.873Z,24.59
2022-10-24T08:49:26.260Z,24.66
2022-10-24T08:52:01.601Z,24.72
2022-10-24T08:54:46.341Z,24.79
2022-10-24T08:57:24.660Z,24.83
2022-10-24T08:59:53.244Z,24.90
2022-10-24T09:02:24.904Z,24.92
2022-10-24T09:04:54.627Z,24.93
2022-10-24T09:07:21.828Z,24.93
2022-10-24T09:09:56.447Z,24.91
2022-10-24T09:12:22.863Z,24.88
2022-10-24T09:14:57.309Z,24.86
2022-10-24T09:17:25.708Z,24.85
2022-10-24T09:19:59.078Z,24.80
2022-10-24T09:22:27.046Z,24.76
2022-10-24T09:24:56.066Z,24.73
2022-10-24T09:27:30.511Z,24.67
2022-10-24T09:29:57.322Z,24.67
2022-10-24T09:32:30.669Z,24.63
2022-10-24T09:35:04.805Z,24.59
2022-10-24T09:37:42.817Z,24.59
2022-10-24T09:40:16.322Z,24.56
2022-10-24T09:42:50.960Z,24.54
2022-10-24T09:45:28.064Z,24.51
2022-10-24T09:47:58.039Z,24.48
2022-10-24T09:50:24.695Z,24.47
2022-10-24T09:52:52.416Z,24.45
2022-10-24T09:55:24.320Z,24.43
2022-10-24T09:57:55.255Z,24.43
2022-10-24T10:00:26.763Z,24.39
2022-10-24T10:02:57.350Z,24.40
2022-10-24T10:05:23.691Z,24.38
2022-10-24T10:07:50.884Z,24.36
2022-10-24T10:10:25.746Z,24.37
2022-10-24T10:12:56.535Z,24.39
2022-10-24T10:15:31.111Z,24.40
2022-10-24T10:17:59.672Z,24.44
2022-10-24T10:20:40.882Z,24.46
2022-10-24T10:23:27.456Z,24.48
2022-10-24T10:26:02.082Z,24.50
2022-10-24T10:28:28.345Z,24.52
2022-10-24T10:30:59.586Z,24.53
2022-10-24T10:33:39.042Z,24.56
2022-10-24T10:36:05.530Z,24.58
2022-10-24T10:38:49.989Z,24.59
2022-10-24T10:41:16.262Z,24.61
2022-10-24T10:43:42.530Z,24.63
2022-10-24T10:46:14.887Z,24.66
2022-10-24T10:48:44.473Z,24.66
2022-10-24T10:51:16.726Z,24.65
2022-10-24T10:54:01.857Z,24.69
2022-10-24T10:56:34.889Z,24.71
2022-10-24T10:59:29.412Z,24.72
2022-10-24T11:02:02.938Z,24.75
2022-10-24T11:04:45.891Z,24.78
2022-10-24T11:07:21.053Z,24.79
2022-10-24T11:10:07.677Z,24.83
2022-10-24T11:12:38.908Z,24.84
2022-10-24T11:15:05.225Z,24.87
2022-10-24T11:17:40.089Z,24.89
2022-10-24T11:20:16.420Z,24.92
2022-10-24T11:22:53.236Z,24.94
2022-10-24T11:25:35.377Z,24.94
2022-10-24T11:28:20.469Z,24.97
2022-10-24T11:30:52.742Z,24.98
2022-10-24T11:33:22.096Z,25.01
2022-10-24T11:35:55.704Z,25.01
2022-10-24T11:38:23.829Z,25.03
2022-10-24T11:40:58.638Z,25.03
2022-10-24T11:43:28.623Z,25.03
2022-10-24T11:46:13.818Z,25.02
2022-10-24T11:51:21.855Z,24.97
2022-10-24T11:54:01.753Z,24.94
2022-10-24T11:56:31.212Z,24.90
2022-10-24T11:58:59.891Z,24.90
2022-10-24T12:01:47.426Z,24.87
2022-10-24T12:04:38.859Z,24.86
2022-10-24T12:07:10.981Z,24.86
2022-10-24T12:09:55.480Z,24.83
2022-10-24T12:12:21.721Z,24.82
2022-10-24T12:15:02.247Z,24.78
2022-10-24T12:17:36.680Z,24.77
2022-10-24T12:20:05.722Z,24.76
2022-10-24T12:22:35.321Z,24.75
2022-10-24T12:25:17.232Z,24.74
2022-10-24T12:27:43.696Z,24.74
2022-10-24T12:30:10.037Z,24.71
2022-10-24T12:32:40.734Z,24.69
2022-10-24T12:35:30.355Z,24.66
2022-10-24T12:38:01.562Z,24.64
2022-10-24T12:40:43.169Z,24.63
2022-10-24T12:43:29.020Z,24.64
2022-10-24T12:45:55.991Z,24.65
2022-10-24T12:48:32.814Z,24.66
2022-10-24T12:51:00.606Z,24.67
2022-10-24T12:53:34.973Z,24.70
2022-10-24T12:56:07.735Z,24.70
2022-10-24T12:58:34.735Z,24.70
2022-10-24T13:01:03.737Z,24.70
2022-10-24T13:03:48.551Z,24.71
2022-10-24T13:06:14.834Z,24.69
2022-10-24T13:08:44.280Z,24.67
2022-10-24T13:11:33.922Z,24.64
2022-10-24T13:14:03.009Z,24.58
2022-10-24T13:16:36.040Z,24.54
2022-10-24T13:19:05.110Z,24.49
2022-10-24T13:21:47.229Z,24.45
2022-10-24T13:24:16.659Z,24.41
2022-10-24T13:26:46.780Z,24.38
2022-10-24T13:29:35.836Z,24.34
2022-10-24T13:32:05.242Z,24.32
2022-10-24T13:34:50.091Z,24.31
2022-10-24T13:37:22.056Z,24.30
2022-10-24T13:39:53.325Z,24.32
2022-10-24T13:42:25.297Z,24.33
2022-10-24T13:44:54.376Z,24.35
2022-10-24T13:47:33.082Z,24.35
2022-10-24T13:50:13.096Z,24.36
2022-10-24T13:52:46.858Z,24.35
2022-10-24T13:55:33.253Z,24.35
2022-10-24T13:58:00.951Z,24.35
2022-10-24T14:00:31.724Z,24.34
2022-10-24T14:03:01.026Z,24.33
2022-10-24T14:05:33.124Z,24.35
2022-10-24T14:08:00.371Z,24.37
2022-10-24T14:10:26.989Z,24.39
2022-10-24T14:12:57.232Z,24.42
2022-10-24T14:15:25.958Z,24.43
2022-10-24T14:17:56.760Z,24.45
2022-10-24T14:20:24.500Z,24.45
2022-10-24T14:22:50.884Z,24.46
2022-10-24T14:25:46.818Z,24.45
2022-10-24T14:28:17.452Z,24.47
2022-10-24T14:30:53.999Z,24.47
2022-10-24T14:33:22.876Z,24.47
2022-10-24T14:35:55.238Z,24.47
2022-10-24T14:38:24.782Z,24.48
2022-10-24T14:41:06.339Z,24.48
2022-10-24T14:43:35.043Z,24.48
2022-10-24T14:46:13.682Z,24.48
2022-10-24T14:48:42.509Z,24.49
2022-10-24T14:51:24.467Z,24.49
2022-10-24T14:53:51.056Z,24.53
2022-10-24T14:56:28.649Z,24.53
2022-10-24T14:58:56.552Z,24.55
2022-10-24T15:01:24.042Z,24.54
2022-10-24T15:03:51.760Z,24.52
2022-10-24T15:06:24.338Z,24.51
2022-10-24T15:09:03.879Z,24.51
2022-10-24T15:11:37.577Z,24.49
2022-10-24T15:14:07.426Z,24.49
2022-10-24T15:16:35.671Z,24.48
2022-10-24T15:19:04.197Z,24.48
2022-10-24T15:21:38.910Z,24.47
2022-10-24T15:24:05.753Z,24.47
2022-10-24T15:26:40.744Z,24.46
2022-10-24T15:29:13.254Z,24.45
2022-10-24T15:31:40.695Z,24.43
2022-10-24T15:34:11.605Z,24.42
2022-10-24T15:36:42.478Z,24.41
2022-10-24T15:39:12.481Z,24.39
2022-10-24T15:41:39.393Z,24.36
2022-10-24T15:44:06.731Z,24.33
2022-10-24T15:46:33.354Z,24.31
2022-10-24T15:48:59.685Z,24.29
2022-10-24T15:51:26.157Z,24.23
2022-10-24T15:53:54.093Z,24.17
2022-10-24T15:56:20.325Z,24.08
2022-10-24T16:01:39.832Z,23.88
2022-10-24T16:04:10.234Z,23.76
2022-10-24T16:06:40.134Z,23.66
2022-10-24T16:09:08.668Z,23.56
2022-10-24T16:11:34.895Z,23.47
2022-10-24T16:14:02.719Z,23.37
2022-10-24T16:16:29.448Z,23.27
2022-10-24T16:18:55.667Z,23.19
2022-10-24T16:21:22.588Z,23.11
2022-10-24T16:26:23.071Z,22.98
2022-10-24T16:28:49.385Z,22.92
2022-10-24T16:31:18.525Z,22.89
2022-10-24T16:33:45.791Z,22.84
2022-10-24T16:36:12.266Z,22.80
2022-10-24T16:38:38.510Z,22.75
2022-10-24T16:41:04.957Z,22.71
2022-10-24T16:43:31.354Z,22.68
2022-10-24T16:46:02.134Z,22.61
2022-10-24T16:48:28.943Z,22.57
2022-10-24T16:50:55.349Z,22.53
2022-10-24T16:53:22.182Z,22.49
2022-10-24T16:55:52.505Z,22.46
2022-10-24T16:58:19.551Z,22.44
2022-10-24T17:00:46.603Z,22.41
2022-10-24T17:03:12.955Z,22.39
2022-10-24T17:05:40.481Z,22.35
2022-10-24T17:08:06.908Z,22.33
2022-10-24T17:10:33.273Z,22.31
2022-10-24T17:13:00.916Z,22.27
2022-10-24T17:15:27.317Z,22.25
2022-10-24T17:17:53.568Z,22.21
2022-10-24T17:20:19.808Z,22.18
2022-10-24T17:22:46.566Z,22.15
2022-10-24T17:25:31.318Z,22.11
2022-10-24T17:27:57.716Z,22.07
2022-10-24T17:30:25.674Z,22.02
2022-10-24T17:32:52.473Z,21.98
2022-10-24T17:35:20.712Z,21.93
2022-10-24T17:37:52.599Z,21.88
2022-10-24T17:40:20.452Z,21.84
2022-10-24T17:42:49.809Z,21.81
2022-10-24T17:45:16.397Z,21.79
2022-10-24T17:47:43.071Z,21.78
2022-10-24T17:50:10.116Z,21.78
2022-10-24T17:52:39.976Z,21.78
2022-10-24T17:55:18.249Z,21.78
2022-10-24T17:57:54.241Z,21.77
2022-10-24T18:00:20.525Z,21.77
2022-10-24T18:02:48.070Z,21.76
2022-10-24T18:05:14.661Z,21.76
2022-10-24T18:07:41.175Z,21.76
2022-10-24T18:10:07.815Z,21.74
2022-10-24T18:12:35.567Z,21.75
2022-10-24T18:15:02.183Z,21.75
2022-10-24T18:17:29.008Z,21.75
2022-10-24T18:19:55.237Z,21.74
2022-10-24T18:22:21.506Z,21.75
2022-10-24T18:24:47.845Z,21.75
2022-10-24T18:27:14.138Z,21.75
2022-10-24T18:32:14.451Z,21.72
2022-10-24T18:34:41.484Z,21.71
2022-10-24T18:37:08.517Z,21.69
2022-10-24T18:39:34.916Z,21.68
2022-10-24T18:42:05.471Z,21.67
2022-10-24T18:44:33.548Z,21.66
2022-10-24T18:47:01.756Z,21.64
2022-10-24T18:49:28.673Z,21.63
2022-10-24T18:52:03.996Z,21.61
2022-10-24T18:54:30.659Z,21.59
2022-10-24T18:56:57.511Z,21.55
2022-10-24T18:59:23.872Z,21.51
2022-10-24T19:02:00.660Z,21.49
2022-10-24T19:04:27.096Z,21.44
2022-10-24T19:06:56.030Z,21.39
2022-10-24T19:09:23.443Z,21.36
2022-10-24T19:11:50.941Z,21.30
2022-10-24T19:14:17.458Z,21.28
2022-10-24T19:16:46.679Z,21.23
2022-10-24T19:19:14.627Z,21.20
2022-10-24T19:21:40.962Z,21.15
2022-10-24T19:24:07.546Z,21.10
2022-10-24T19:26:33.905Z,21.03
2022-10-24T19:29:03.486Z,20.97
2022-10-24T19:31:32.077Z,20.90
2022-10-24T19:33:58.730Z,20.84
2022-10-24T19:36:28.150Z,20.79
2022-10-24T19:38:55.482Z,20.74
2022-10-24T19:41:22.111Z,20.69
2022-10-24T19:43:48.390Z,20.66
2022-10-24T19:46:19.795Z,20.62
2022-10-24T19:48:49.213Z,20.58
2022-10-24T19:51:16.410Z,20.57
2022-10-24T19:53:43.353Z,20.54
2022-10-24T19:56:14.362Z,20.56
2022-10-24T19:58:41.408Z,20.55
2022-10-24T20:01:09.648Z,20.56
2022-10-24T20:03:36.467Z,20.53
2022-10-24T20:06:02.738Z,20.52
2022-10-24T20:08:28.993Z,20.49
2022-10-24T20:10:55.322Z,20.45
2022-10-24T20:13:21.926Z,20.41
2022-10-24T20:15:58.401Z,20.38
2022-10-24T20:18:26.667Z,20.32
2022-10-24T20:20:53.196Z,20.27
2022-10-24T20:23:20.872Z,20.24
2022-10-24T20:25:47.758Z,20.20
2022-10-24T20:28:14.012Z,20.17
2022-10-24T20:30:42.187Z,20.16
2022-10-24T20:33:08.483Z,20.15
2022-10-24T20:35:35.027Z,20.14
2022-10-24T20:38:01.325Z,20.15
2022-10-24T20:40:27.619Z,20.15
2022-10-24T20:42:54.164Z,20.16
2022-10-24T20:45:22.979Z,20.17
2022-10-24T20:47:49.755Z,20.17
2022-10-24T20:50:16.128Z,20.18
2022-10-24T20:52:42.468Z,20.18
2022-10-24T20:55:19.638Z,20.21
2022-10-24T20:57:55.122Z,20.23
2022-10-24T21:00:21.503Z,20.23
2022-10-24T21:02:50.356Z,20.22
2022-10-24T21:05:16.795Z,20.18
2022-10-24T21:07:43.040Z,20.16
2022-10-24T21:10:09.537Z,20.15
2022-10-24T21:12:35.882Z,20.11
2022-10-24T21:15:02.101Z,20.12
2022-10-24T21:17:28.547Z,20.11
2022-10-24T21:19:54.953Z,20.12
2022-10-24T21:22:21.230Z,20.14
2022-10-24T21:24:47.448Z,20.15
2022-10-24T21:27:13.862Z,20.17
2022-10-24T21:29:40.127Z,20.19
2022-10-24T21:32:06.511Z,20.21
2022-10-24T21:34:34.589Z,20.24
2022-10-24T21:37:01.518Z,20.26
2022-10-24T21:39:27.852Z,20.29
2022-10-24T21:41:54.098Z,20.32
2022-10-24T21:44:23.146Z,20.35
2022-10-24T21:46:52.083Z,20.37
2022-10-24T21:49:18.551Z,20.39
2022-10-24T21:51:46.860Z,20.42
2022-10-24T21:54:19.975Z,20.43
2022-10-24T21:56:46.392Z,20.45
2022-10-24T21:59:14.523Z,20.47
2022-10-24T22:01:41.777Z,20.47
2022-10-24T22:04:08.298Z,20.49
2022-10-24T22:06:35.332Z,20.51
2022-10-24T22:09:02.151Z,20.52
2022-10-24T22:11:29.643Z,20.53
2022-10-24T22:13:55.970Z,20.55
2022-10-24T22:16:23.708Z,20.56
2022-10-24T22:18:50.202Z,20.58
2022-10-24T22:21:26.999Z,20.58
2022-10-24T22:23:55.557Z,20.60
2022-10-24T22:26:21.899Z,20.62
2022-10-24T22:28:49.115Z,20.62
2022-10-24T22:31:15.774Z,20.63
2022-10-24T22:33:43.278Z,20.62
2022-10-24T22:36:44.869Z,20.61
2022-10-24T22:39:15.834Z,20.60
2022-10-24T22:41:42.679Z,20.57
2022-10-24T22:44:11.918Z,20.57
2022-10-24T22:46:52.649Z,20.54
2022-10-24T22:49:37.685Z,20.54
2022-10-24T22:52:04.168Z,20.54
2022-10-24T22:54:34.092Z,20.52
2022-10-24T22:57:00.678Z,20.54
2022-10-24T22:59:27.297Z,20.57
2022-10-24T23:02:05.405Z,20.57
2022-10-24T23:04:54.708Z,20.57
2022-10-24T23:07:27.438Z,20.59
2022-10-24T23:09:54.119Z,20.58
2022-10-24T23:12:21.779Z,20.59
2022-10-24T23:14:48.866Z,20.59
2022-10-24T23:17:25.568Z,20.59
2022-10-24T23:19:52.611Z,20.59
2022-10-24T23:22:26.883Z,20.58
2022-10-24T23:24:54.600Z,20.56
2022-10-24T23:27:26.237Z,20.54
2022-10-24T23:29:52.618Z,20.52
2022-10-24T23:32:20.722Z,20.50
2022-10-24T23:34:47.563Z,20.48
2022-10-24T23:37:23.675Z,20.47
2022-10-24T23:39:50.267Z,20.46
2022-10-24T23:42:16.634Z,20.47
2022-10-24T23:44:43.230Z,20.44
2022-10-24T23:47:19.344Z,20.42
2022-10-24T23:49:50.610Z,20.41
2022-10-24T23:52:25.740Z,20.40
2022-10-24T23:54:52.293Z,20.37
2022-10-24T23:57:19.696Z,20.36
2022-10-24T23:59:46.254Z,20.34
